Occidental, CA (95465)

9:07 PM PDT on July 24, 2016 (GMT -0700)
Joy Road | | Change Station

Elev 1010 ft 38.40 °N, 122.98 °W | Updated 11 minutes ago

Clear
Clear
64.3 °F
Feels Like 64.3 °F
N
0.0
Wind Variable Wind from South
Gusts 0.0 mph

Today
High -- | Low -- °F
--% Chance of Precip.
Yesterday
High -- | Low -- °F
Precip. -- in
Pressure 29.82 in
Visibility 8.0 miles
Clouds Clear
Dew Point 54 °F
Humidity 70%
Rainfall 0.00 in
Snow Depth Not available.
6:07 AM 8:28 PM
Waning Gibbous, 70% visible
METAR KSTS 250353Z AUTO 17005KT 8SM CLR 16/11 A2984 RMK AO2 SLP098 T01560106
Pressure 29.82 in
Visibility 8.0 miles
Clouds Clear
Dew Point 54 °F
Humidity 70%
Rainfall 0.00 in
Snow Depth Not available.
6:07 AM 8:28 PM
Waning Gibbous, 70% visible
METAR KSTS 250353Z AUTO 17005KT 8SM CLR 16/11 A2984 RMK AO2 SLP098 T01560106

10-Day Weather Forecast

Almanac

Astronomy

Jul. 24, 2016 Rise Set
Actual Time
Civil Twilight
Nautical Twilight
Astronomical Twilight
Moon
Length of Visible Light
Length of Day
Tomorrow will be .
, % of the Moon is Illuminated

Today's Extremes

State Highs State Lows

Community

WunderPhotos

Upload Photos

1,927,264 photos uploaded!

WunderBlog® & News

Nearby

Air Quality

  Air Quality AQ Index Pollutant
Not available.

Snow Depth

Station Depth Elevation

Earthquake Activity

City Distance Mag. Time & Date
Minimum magnitude displayed is 2.5.

Coastal Water Temperatures

Place Temperature

Stations

Nearby Weather Stations

Station Location Temp. Windchill Dew Point Humidity Wind Precip. Elev Updated Type
                   

Watches & Warnings

There are currently no watches in effect.